sensor_id;sensor_type;location;lat;lon;timestamp;pressure;altitude;pressure_sealevel;temperature;humidity
77325;BME280;66387;53.440;10.390;2023-02-24T00:01:01;100467.59;;;3.65;74.03
77325;BME280;66387;53.440;10.390;2023-02-24T00:03:36;100468.34;;;3.58;73.61
77325;BME280;66387;53.440;10.390;2023-02-24T00:06:03;100466.69;;;3.60;73.56
77325;BME280;66387;53.440;10.390;2023-02-24T00:08:34;100465.78;;;3.58;74.04
77325;BME280;66387;53.440;10.390;2023-02-24T00:10:59;100469.13;;;3.51;74.76
77325;BME280;66387;53.440;10.390;2023-02-24T00:13:24;100465.75;;;3.55;74.91
77325;BME280;66387;53.440;10.390;2023-02-24T00:16:02;100463.22;;;3.58;75.04
77325;BME280;66387;53.440;10.390;2023-02-24T00:18:29;100458.81;;;3.46;75.01
77325;BME280;66387;53.440;10.390;2023-02-24T00:20:56;100460.53;;;3.47;75.93
77325;BME280;66387;53.440;10.390;2023-02-24T00:23:27;100456.22;;;3.44;76.53
77325;BME280;66387;53.440;10.390;2023-02-24T00:25:58;100450.78;;;3.20;77.95
77325;BME280;66387;53.440;10.390;2023-02-24T00:28:24;100448.25;;;3.23;77.57
77325;BME280;66387;53.440;10.390;2023-02-24T00:30:49;100449.00;;;3.16;78.87
77325;BME280;66387;53.440;10.390;2023-02-24T00:33:15;100446.63;;;3.30;78.70
77325;BME280;66387;53.440;10.390;2023-02-24T00:35:40;100447.41;;;3.26;78.10
77325;BME280;66387;53.440;10.390;2023-02-24T00:38:05;100436.44;;;3.34;78.36
77325;BME280;66387;53.440;10.390;2023-02-24T00:40:31;100441.38;;;3.22;79.45
77325;BME280;66387;53.440;10.390;2023-02-24T00:42:56;100434.50;;;3.18;79.72
77325;BME280;66387;53.440;10.390;2023-02-24T00:45:22;100430.28;;;3.23;80.24
77325;BME280;66387;53.440;10.390;2023-02-24T00:47:47;100425.06;;;3.17;80.61
77325;BME280;66387;53.440;10.390;2023-02-24T00:50:12;100424.44;;;3.33;80.00
77325;BME280;66387;53.440;10.390;2023-02-24T00:52:38;100424.38;;;3.27;80.05
77325;BME280;66387;53.440;10.390;2023-02-24T00:55:03;100422.69;;;3.32;79.82
77325;BME280;66387;53.440;10.390;2023-02-24T00:57:38;100415.81;;;3.28;80.37
77325;BME280;66387;53.440;10.390;2023-02-24T01:00:05;100409.88;;;3.32;79.82
77325;BME280;66387;53.440;10.390;2023-02-24T01:02:38;100414.06;;;3.26;79.69
77325;BME280;66387;53.440;10.390;2023-02-24T01:05:03;100409.66;;;3.16;81.44
77325;BME280;66387;53.440;10.390;2023-02-24T01:07:28;100398.72;;;3.29;81.34
77325;BME280;66387;53.440;10.390;2023-02-24T01:09:54;100396.94;;;3.25;80.26
77325;BME280;66387;53.440;10.390;2023-02-24T01:12:19;100397.78;;;3.22;80.88
77325;BME280;66387;53.440;10.390;2023-02-24T01:15:04;100395.38;;;3.36;80.11
77325;BME280;66387;53.440;10.390;2023-02-24T01:17:29;100386.75;;;3.29;80.58
77325;BME280;66387;53.440;10.390;2023-02-24T01:19:54;100381.56;;;3.23;80.40
77325;BME280;66387;53.440;10.390;2023-02-24T01:22:24;100376.44;;;3.23;79.37
77325;BME280;66387;53.440;10.390;2023-02-24T01:24:50;100376.44;;;3.23;80.61
77325;BME280;66387;53.440;10.390;2023-02-24T01:27:16;100363.69;;;3.31;80.79
77325;BME280;66387;53.440;10.390;2023-02-24T01:29:45;100363.69;;;3.31;79.58
77325;BME280;66387;53.440;10.390;2023-02-24T01:32:16;100364.63;;;3.37;79.56
77325;BME280;66387;53.440;10.390;2023-02-24T01:34:42;100366.38;;;3.43;80.11
77325;BME280;66387;53.440;10.390;2023-02-24T01:37:08;100355.25;;;3.42;79.58
77325;BME280;66387;53.440;10.390;2023-02-24T01:39:34;100350.13;;;3.42;78.75
77325;BME280;66387;53.440;10.390;2023-02-24T01:41:59;100349.28;;;3.42;78.41
77325;BME280;66387;53.440;10.390;2023-02-24T01:46:56;100336.34;;;3.31;78.73
77325;BME280;66387;53.440;10.390;2023-02-24T01:49:26;100327.00;;;3.38;78.82
77325;BME280;66387;53.440;10.390;2023-02-24T01:52:07;100328.69;;;3.36;78.69
77325;BME280;66387;53.440;10.390;2023-02-24T01:57:09;100331.34;;;3.43;79.03
77325;BME280;66387;53.440;10.390;2023-02-24T01:59:36;100324.31;;;3.27;79.22
77325;BME280;66387;53.440;10.390;2023-02-24T02:02:04;100321.78;;;3.32;78.50
77325;BME280;66387;53.440;10.390;2023-02-24T02:04:41;100316.66;;;3.32;79.30
77325;BME280;66387;53.440;10.390;2023-02-24T02:07:12;100309.91;;;3.38;78.55
77325;BME280;66387;53.440;10.390;2023-02-24T02:09:38;100308.84;;;3.21;79.15
77325;BME280;66387;53.440;10.390;2023-02-24T02:12:08;100310.69;;;3.31;78.09
77325;BME280;66387;53.440;10.390;2023-02-24T02:14:35;100307.16;;;3.25;79.17
77325;BME280;66387;53.440;10.390;2023-02-24T02:17:14;100302.94;;;3.28;78.80
77325;BME280;66387;53.440;10.390;2023-02-24T02:20:20;100297.78;;;3.24;79.13
77325;BME280;66387;53.440;10.390;2023-02-24T02:23:02;100290.09;;;3.28;78.09
77325;BME280;66387;53.440;10.390;2023-02-24T02:25:47;100285.66;;;3.14;79.25
77325;BME280;66387;53.440;10.390;2023-02-24T02:34:02;100272.97;;;3.24;79.27
77325;BME280;66387;53.440;10.390;2023-02-24T02:39:21;100266.16;;;3.26;78.59
77325;BME280;66387;53.440;10.390;2023-02-24T02:42:06;100254.97;;;3.20;78.60
77325;BME280;66387;53.440;10.390;2023-02-24T02:45:04;100249.78;;;3.15;79.27
77325;BME280;66387;53.440;10.390;2023-02-24T02:47:36;100249.91;;;3.26;78.51
77325;BME280;66387;53.440;10.390;2023-02-24T02:52:42;100242.03;;;3.11;79.23
77325;BME280;66387;53.440;10.390;2023-02-24T02:55:35;100239.59;;;3.20;79.19
77325;BME280;66387;53.440;10.390;2023-02-24T02:58:05;100243.00;;;3.19;78.73
77325;BME280;66387;53.440;10.390;2023-02-24T03:00:35;100231.09;;;3.24;79.09
77325;BME280;66387;53.440;10.390;2023-02-24T03:03:11;100216.47;;;3.18;79.11
77325;BME280;66387;53.440;10.390;2023-02-24T03:05:48;100220.66;;;3.09;78.55
77325;BME280;66387;53.440;10.390;2023-02-24T03:08:19;100215.53;;;3.10;78.50
77325;BME280;66387;53.440;10.390;2023-02-24T03:10:46;100210.50;;;3.16;78.35
77325;BME280;66387;53.440;10.390;2023-02-24T03:13:18;100205.34;;;3.18;78.53
77325;BME280;66387;53.440;10.390;2023-02-24T03:15:47;100208.78;;;3.18;78.67
77325;BME280;66387;53.440;10.390;2023-02-24T03:18:18;100207.94;;;3.19;77.80
77325;BME280;66387;53.440;10.390;2023-02-24T03:20:52;100196.88;;;3.25;78.40
77325;BME280;66387;53.440;10.390;2023-02-24T03:23:26;100186.59;;;3.22;78.36
77325;BME280;66387;53.440;10.390;2023-02-24T03:26:02;100187.44;;;3.21;77.82
77325;BME280;66387;53.440;10.390;2023-02-24T03:28:37;100196.78;;;3.14;77.24
77325;BME280;66387;53.440;10.390;2023-02-24T03:31:11;100186.44;;;3.05;77.44
77325;BME280;66387;53.440;10.390;2023-02-24T03:33:49;100177.97;;;3.12;77.53
77325;BME280;66387;53.440;10.390;2023-02-24T03:36:17;100181.34;;;3.08;77.63
77325;BME280;66387;53.440;10.390;2023-02-24T03:38:42;100175.28;;;3.03;77.09
77325;BME280;66387;53.440;10.390;2023-02-24T03:41:08;100176.16;;;3.02;77.00
77325;BME280;66387;53.440;10.390;2023-02-24T03:43:38;100154.84;;;3.08;77.36
77325;BME280;66387;53.440;10.390;2023-02-24T03:46:05;100154.88;;;3.12;76.83
77325;BME280;66387;53.440;10.390;2023-02-24T03:48:31;100151.41;;;3.07;77.38
77325;BME280;66387;53.440;10.390;2023-02-24T03:50:57;100148.84;;;3.10;77.49
77325;BME280;66387;53.440;10.390;2023-02-24T03:56:32;100147.13;;;3.05;76.27
77325;BME280;66387;53.440;10.390;2023-02-24T03:59:13;100137.78;;;3.11;76.32
77325;BME280;66387;53.440;10.390;2023-02-24T04:01:50;100136.03;;;3.10;76.64
77325;BME280;66387;53.440;10.390;2023-02-24T04:06:57;100129.22;;;3.11;76.38
77325;BME280;66387;53.440;10.390;2023-02-24T04:09:39;100126.59;;;3.05;76.18
77325;BME280;66387;53.440;10.390;2023-02-24T04:12:25;100123.19;;;3.04;76.92
77325;BME280;66387;53.440;10.390;2023-02-24T04:15:01;100117.19;;;3.07;76.53
77325;BME280;66387;53.440;10.390;2023-02-24T04:17:38;100111.09;;;2.91;76.36
77325;BME280;66387;53.440;10.390;2023-02-24T04:20:08;100094.00;;;2.90;76.51
77325;BME280;66387;53.440;10.390;2023-02-24T04:22:38;100090.69;;;3.06;76.06
77325;BME280;66387;53.440;10.390;2023-02-24T04:25:05;100084.75;;;3.06;75.32
77325;BME280;66387;53.440;10.390;2023-02-24T04:27:37;100080.41;;;3.03;76.22
77325;BME280;66387;53.440;10.390;2023-02-24T04:30:04;100065.00;;;2.97;75.71
77325;BME280;66387;53.440;10.390;2023-02-24T04:32:31;100061.63;;;3.04;75.05
77325;BME280;66387;53.440;10.390;2023-02-24T04:35:04;100057.34;;;3.03;74.96
77325;BME280;66387;53.440;10.390;2023-02-24T04:37:31;100051.34;;;3.00;75.13
77325;BME280;66387;53.440;10.390;2023-02-24T04:39:58;100050.53;;;3.02;75.62
77325;BME280;66387;53.440;10.390;2023-02-24T04:42:24;100038.56;;;3.04;75.37
77325;BME280;66387;53.440;10.390;2023-02-24T04:44:49;100041.09;;;3.00;75.27
77325;BME280;66387;53.440;10.390;2023-02-24T04:47:14;100027.31;;;2.88;76.26
77325;BME280;66387;53.440;10.390;2023-02-24T04:49:39;100025.69;;;2.98;75.94
77325;BME280;66387;53.440;10.390;2023-02-24T04:52:06;100012.91;;;3.04;76.04
77325;BME280;66387;53.440;10.390;2023-02-24T04:54:33;100000.03;;;2.93;76.34
77325;BME280;66387;53.440;10.390;2023-02-24T04:56:59;99993.19;;;2.91;76.54
77325;BME280;66387;53.440;10.390;2023-02-24T04:59:26;99994.88;;;2.92;76.97
77325;BME280;66387;53.440;10.390;2023-02-24T05:01:52;99987.22;;;2.95;76.00
77325;BME280;66387;53.440;10.390;2023-02-24T05:04:19;99978.75;;;3.02;75.96
77325;BME280;66387;53.440;10.390;2023-02-24T05:06:45;99978.69;;;2.99;76.05
77325;BME280;66387;53.440;10.390;2023-02-24T05:09:15;99973.56;;;2.94;76.25
77325;BME280;66387;53.440;10.390;2023-02-24T05:11:43;99967.50;;;2.86;76.68
77325;BME280;66387;53.440;10.390;2023-02-24T05:14:10;99969.25;;;2.92;76.68
77325;BME280;66387;53.440;10.390;2023-02-24T05:16:39;99962.38;;;2.86;76.97
77325;BME280;66387;53.440;10.390;2023-02-24T05:19:05;99946.97;;;2.85;77.92
77325;BME280;66387;53.440;10.390;2023-02-24T05:21:49;99955.50;;;2.79;78.10
77325;BME280;66387;53.440;10.390;2023-02-24T05:24:14;99949.53;;;2.83;78.43
77325;BME280;66387;53.440;10.390;2023-02-24T05:26:41;99935.84;;;2.80;78.88
77325;BME280;66387;53.440;10.390;2023-02-24T05:29:06;99926.47;;;2.80;78.94
77325;BME280;66387;53.440;10.390;2023-02-24T05:31:32;99917.00;;;2.72;78.93
77325;BME280;66387;53.440;10.390;2023-02-24T05:34:00;99913.56;;;2.71;79.15
77325;BME280;66387;53.440;10.390;2023-02-24T05:36:32;99925.53;;;2.69;79.73
77325;BME280;66387;53.440;10.390;2023-02-24T05:38:58;99915.28;;;2.74;79.12
77325;BME280;66387;53.440;10.390;2023-02-24T05:41:27;99907.56;;;2.68;79.55
77325;BME280;66387;53.440;10.390;2023-02-24T05:44:01;99903.28;;;2.67;79.76
77325;BME280;66387;53.440;10.390;2023-02-24T05:46:32;99893.00;;;2.64;79.78
77325;BME280;66387;53.440;10.390;2023-02-24T05:49:00;99887.03;;;2.63;80.11
77325;BME280;66387;53.440;10.390;2023-02-24T05:51:30;99882.78;;;2.67;79.73
77325;BME280;66387;53.440;10.390;2023-02-24T05:54:03;99884.56;;;2.77;79.22
77325;BME280;66387;53.440;10.390;2023-02-24T05:56:30;99878.59;;;2.76;79.22
77325;BME280;66387;53.440;10.390;2023-02-24T05:58:58;99881.16;;;2.78;79.19
77325;BME280;66387;53.440;10.390;2023-02-24T06:01:27;99871.75;;;2.77;79.78
77325;BME280;66387;53.440;10.390;2023-02-24T06:03:55;99868.34;;;2.79;79.52
77325;BME280;66387;53.440;10.390;2023-02-24T06:06:20;99859.00;;;2.86;79.24
77325;BME280;66387;53.440;10.390;2023-02-24T06:08:47;99853.84;;;2.83;78.64
77325;BME280;66387;53.440;10.390;2023-02-24T06:11:17;99847.84;;;2.81;79.28
77325;BME280;66387;53.440;10.390;2023-02-24T06:13:43;99847.84;;;2.79;79.38
77325;BME280;66387;53.440;10.390;2023-02-24T06:16:15;99844.47;;;2.83;79.27
77325;BME280;66387;53.440;10.390;2023-02-24T06:18:42;99837.59;;;2.79;79.76
77325;BME280;66387;53.440;10.390;2023-02-24T06:21:08;99841.88;;;2.85;79.37
77325;BME280;66387;53.440;10.390;2023-02-24T06:23:36;99841.03;;;2.86;79.35
77325;BME280;66387;53.440;10.390;2023-02-24T06:26:02;99841.00;;;2.81;79.80
77325;BME280;66387;53.440;10.390;2023-02-24T06:28:28;99830.81;;;2.92;79.39
77325;BME280;66387;53.440;10.390;2023-02-24T06:30:54;99831.72;;;2.97;78.79
77325;BME280;66387;53.440;10.390;2023-02-24T06:33:20;99814.59;;;2.93;79.08
77325;BME280;66387;53.440;10.390;2023-02-24T06:35:46;99812.00;;;2.88;79.45
77325;BME280;66387;53.440;10.390;2023-02-24T06:38:11;99817.09;;;2.81;79.48
77325;BME280;66387;53.440;10.390;2023-02-24T06:40:39;99805.19;;;2.93;79.20
77325;BME280;66387;53.440;10.390;2023-02-24T06:43:04;99810.31;;;2.93;80.10
77325;BME280;66387;53.440;10.390;2023-02-24T06:45:29;99806.03;;;2.92;80.17
77325;BME280;66387;53.440;10.390;2023-02-24T06:47:56;99804.31;;;2.87;80.71
77325;BME280;66387;53.440;10.390;2023-02-24T06:50:22;99805.19;;;2.87;81.69
77325;BME280;66387;53.440;10.390;2023-02-24T06:52:48;99791.44;;;2.72;81.92
77325;BME280;66387;53.440;10.390;2023-02-24T06:55:15;99794.84;;;2.74;82.33
77325;BME280;66387;53.440;10.390;2023-02-24T06:57:57;99793.19;;;2.82;83.20
77325;BME280;66387;53.440;10.390;2023-02-24T07:00:24;99784.63;;;2.81;83.44
77325;BME280;66387;53.440;10.390;2023-02-24T07:03:04;99800.78;;;2.70;83.90
77325;BME280;66387;53.440;10.390;2023-02-24T07:05:43;99790.50;;;2.59;85.00
77325;BME280;66387;53.440;10.390;2023-02-24T07:08:14;99792.19;;;2.54;85.14
77325;BME280;66387;53.440;10.390;2023-02-24T07:10:41;99778.47;;;2.49;85.73
77325;BME280;66387;53.440;10.390;2023-02-24T07:13:06;99789.59;;;2.50;86.18
77325;BME280;66387;53.440;10.390;2023-02-24T07:15:34;99772.50;;;2.48;86.22
77325;BME280;66387;53.440;10.390;2023-02-24T07:18:01;99761.31;;;2.31;86.98
77325;BME280;66387;53.440;10.390;2023-02-24T07:20:27;99765.56;;;2.29;87.64
77325;BME280;66387;53.440;10.390;2023-02-24T07:22:54;99762.97;;;2.26;87.41
77325;BME280;66387;53.440;10.390;2023-02-24T07:25:20;99757.06;;;2.36;88.42
77325;BME280;66387;53.440;10.390;2023-02-24T07:27:58;99760.50;;;2.40;87.77
77325;BME280;66387;53.440;10.390;2023-02-24T07:30:29;99754.44;;;2.24;88.75
77325;BME280;66387;53.440;10.390;2023-02-24T07:32:55;99747.56;;;2.20;88.00
77325;BME280;66387;53.440;10.390;2023-02-24T07:35:21;99741.56;;;2.14;88.50
77325;BME280;66387;53.440;10.390;2023-02-24T07:37:47;99738.19;;;2.18;89.99
77325;BME280;66387;53.440;10.390;2023-02-24T07:40:13;99735.56;;;2.12;89.81
77325;BME280;66387;53.440;10.390;2023-02-24T07:42:42;99726.09;;;2.02;90.48
77325;BME280;66387;53.440;10.390;2023-02-24T07:45:09;99725.22;;;1.95;90.69
77325;BME280;66387;53.440;10.390;2023-02-24T07:47:34;99720.19;;;2.07;90.70
77325;BME280;66387;53.440;10.390;2023-02-24T07:50:00;99700.47;;;1.95;90.09
77325;BME280;66387;53.440;10.390;2023-02-24T07:52:27;99721.75;;;1.85;90.42
77325;BME280;66387;53.440;10.390;2023-02-24T07:54:52;99690.22;;;1.94;90.95
77325;BME280;66387;53.440;10.390;2023-02-24T07:57:19;99689.31;;;1.86;91.28
77325;BME280;66387;53.440;10.390;2023-02-24T07:59:44;99691.94;;;1.92;91.00
77325;BME280;66387;53.440;10.390;2023-02-24T08:02:10;99703.03;;;1.95;91.20
77325;BME280;66387;53.440;10.390;2023-02-24T08:04:37;99681.75;;;2.04;91.56
77325;BME280;66387;53.440;10.390;2023-02-24T08:07:05;99696.22;;;1.93;91.61
77325;BME280;66387;53.440;10.390;2023-02-24T08:09:38;99680.84;;;1.93;91.42
77325;BME280;66387;53.440;10.390;2023-02-24T08:12:14;99680.81;;;1.90;91.44
77325;BME280;66387;53.440;10.390;2023-02-24T08:14:42;99675.53;;;1.69;92.27
77325;BME280;66387;53.440;10.390;2023-02-24T08:17:15;99665.44;;;1.84;92.29
77325;BME280;66387;53.440;10.390;2023-02-24T08:19:45;99659.38;;;1.73;91.72
77325;BME280;66387;53.440;10.390;2023-02-24T08:22:12;99661.09;;;1.75;91.97
77325;BME280;66387;53.440;10.390;2023-02-24T08:24:57;99654.16;;;1.61;92.30
77325;BME280;66387;53.440;10.390;2023-02-24T08:27:30;99656.78;;;1.68;92.35
77325;BME280;66387;53.440;10.390;2023-02-24T08:29:56;99636.31;;;1.67;92.65
77325;BME280;66387;53.440;10.390;2023-02-24T08:35:19;99636.25;;;1.61;93.39
77325;BME280;66387;53.440;10.390;2023-02-24T08:37:53;99628.59;;;1.62;93.07
77325;BME280;66387;53.440;10.390;2023-02-24T08:40:31;99635.44;;;1.60;92.60
77325;BME280;66387;53.440;10.390;2023-02-24T08:42:58;99615.78;;;1.61;92.46
77325;BME280;66387;53.440;10.390;2023-02-24T08:45:25;99616.59;;;1.54;92.80
77325;BME280;66387;53.440;10.390;2023-02-24T08:47:55;99609.00;;;1.60;92.69
77325;BME280;66387;53.440;10.390;2023-02-24T08:50:27;99612.34;;;1.53;92.51
77325;BME280;66387;53.440;10.390;2023-02-24T08:52:58;99590.16;;;1.48;93.19
77325;BME280;66387;53.440;10.390;2023-02-24T08:55:25;99591.03;;;1.54;93.30
77325;BME280;66387;53.440;10.390;2023-02-24T08:57:57;99571.34;;;1.43;92.70
77325;BME280;66387;53.440;10.390;2023-02-24T09:00:27;99568.75;;;1.36;93.47
77325;BME280;66387;53.440;10.390;2023-02-24T09:03:12;99569.59;;;1.36;93.35
77325;BME280;66387;53.440;10.390;2023-02-24T09:05:40;99564.50;;;1.39;92.77
77325;BME280;66387;53.440;10.390;2023-02-24T09:08:05;99549.19;;;1.38;93.40
77325;BME280;66387;53.440;10.390;2023-02-24T09:10:30;99559.47;;;1.45;93.28
77325;BME280;66387;53.440;10.390;2023-02-24T09:12:56;99567.03;;;1.35;93.45
77325;BME280;66387;53.440;10.390;2023-02-24T09:15:21;99542.44;;;1.52;93.30
77325;BME280;66387;53.440;10.390;2023-02-24T09:17:49;99547.56;;;1.54;93.23
77325;BME280;66387;53.440;10.390;2023-02-24T09:20:16;99542.44;;;1.54;93.75
77325;BME280;66387;53.440;10.390;2023-02-24T09:22:55;99539.88;;;1.52;93.40
77325;BME280;66387;53.440;10.390;2023-02-24T09:25:23;99530.53;;;1.59;92.99
77325;BME280;66387;53.440;10.390;2023-02-24T09:28:03;99527.16;;;1.64;92.97
77325;BME280;66387;53.440;10.390;2023-02-24T09:30:33;99517.78;;;1.66;93.11
77325;BME280;66387;53.440;10.390;2023-02-24T09:33:14;99528.00;;;1.68;93.47
77325;BME280;66387;53.440;10.390;2023-02-24T09:35:50;99510.97;;;1.68;92.88
77325;BME280;66387;53.440;10.390;2023-02-24T09:38:18;99532.31;;;1.72;92.92
77325;BME280;66387;53.440;10.390;2023-02-24T09:40:46;99506.75;;;1.75;92.55
77325;BME280;66387;53.440;10.390;2023-02-24T09:43:24;99511.00;;;1.73;92.82
77325;BME280;66387;53.440;10.390;2023-02-24T09:46:04;99498.28;;;1.85;93.17
77325;BME280;66387;53.440;10.390;2023-02-24T09:48:47;99502.56;;;1.89;91.59
77325;BME280;66387;53.440;10.390;2023-02-24T09:51:18;99476.09;;;1.84;92.14
77325;BME280;66387;53.440;10.390;2023-02-24T09:53:53;99490.56;;;1.86;92.12
77325;BME280;66387;53.440;10.390;2023-02-24T09:59:03;99486.34;;;1.85;92.48
77325;BME280;66387;53.440;10.390;2023-02-24T10:01:47;99465.03;;;1.94;92.13
77325;BME280;66387;53.440;10.390;2023-02-24T10:07:27;99471.81;;;1.86;92.55
77325;BME280;66387;53.440;10.390;2023-02-24T10:09:59;99469.31;;;1.98;91.98
77325;BME280;66387;53.440;10.390;2023-02-24T10:12:49;99469.31;;;2.01;93.04
77325;BME280;66387;53.440;10.390;2023-02-24T10:15:20;99471.03;;;1.99;91.83
77325;BME280;66387;53.440;10.390;2023-02-24T10:18:03;99467.59;;;2.05;91.49
77325;BME280;66387;53.440;10.390;2023-02-24T10:20:39;99456.50;;;1.95;92.08
77325;BME280;66387;53.440;10.390;2023-02-24T10:26:17;99453.97;;;2.09;91.69
77325;BME280;66387;53.440;10.390;2023-02-24T10:29:16;99450.53;;;2.02;92.36
77325;BME280;66387;53.440;10.390;2023-02-24T10:31:48;99448.88;;;2.07;91.95
77325;BME280;66387;53.440;10.390;2023-02-24T10:34:23;99426.69;;;2.08;92.47
77325;BME280;66387;53.440;10.390;2023-02-24T10:37:09;99429.22;;;2.15;92.57
77325;BME280;66387;53.440;10.390;2023-02-24T10:39:35;99415.59;;;2.18;92.83
77325;BME280;66387;53.440;10.390;2023-02-24T10:42:03;99413.03;;;2.19;92.34
77325;BME280;66387;53.440;10.390;2023-02-24T10:44:43;99407.91;;;2.19;92.52
77325;BME280;66387;53.440;10.390;2023-02-24T10:47:23;99408.78;;;2.21;91.92
77325;BME280;66387;53.440;10.390;2023-02-24T10:50:00;99404.47;;;2.19;92.13
77325;BME280;66387;53.440;10.390;2023-02-24T10:52:35;99396.81;;;2.26;91.75
77325;BME280;66387;53.440;10.390;2023-02-24T10:55:46;99394.25;;;2.23;92.38
77325;BME280;66387;53.440;10.390;2023-02-24T11:01:02;99377.19;;;2.19;92.64
77325;BME280;66387;53.440;10.390;2023-02-24T11:03:32;99365.22;;;2.33;91.83
77325;BME280;66387;53.440;10.390;2023-02-24T11:06:17;99365.25;;;2.45;91.79
77325;BME280;66387;53.440;10.390;2023-02-24T11:08:58;99363.53;;;2.46;91.98
77325;BME280;66387;53.440;10.390;2023-02-24T11:11:44;99358.44;;;2.43;91.79
77325;BME280;66387;53.440;10.390;2023-02-24T11:14:44;99353.31;;;2.32;91.94
77325;BME280;66387;53.440;10.390;2023-02-24T11:17:29;99350.75;;;2.40;92.02
77325;BME280;66387;53.440;10.390;2023-02-24T11:20:00;99340.50;;;2.23;92.78
77325;BME280;66387;53.440;10.390;2023-02-24T11:22:37;99339.63;;;2.30;93.10
77325;BME280;66387;53.440;10.390;2023-02-24T11:25:19;99337.94;;;2.32;93.29
77325;BME280;66387;53.440;10.390;2023-02-24T11:27:45;99330.22;;;2.37;93.54
77325;BME280;66387;53.440;10.390;2023-02-24T11:32:59;99325.09;;;2.44;93.36
77325;BME280;66387;53.440;10.390;2023-02-24T11:35:40;99313.16;;;2.42;92.72
77325;BME280;66387;53.440;10.390;2023-02-24T11:41:00;99299.50;;;2.49;92.79
77325;BME280;66387;53.440;10.390;2023-02-24T11:43:28;99286.69;;;2.52;93.36
77325;BME280;66387;53.440;10.390;2023-02-24T11:46:00;99290.09;;;2.56;92.90
77325;BME280;66387;53.440;10.390;2023-02-24T11:48:34;99280.69;;;2.64;93.41
77325;BME280;66387;53.440;10.390;2023-02-24T11:51:04;99275.53;;;2.76;92.23
77325;BME280;66387;53.440;10.390;2023-02-24T11:53:36;99278.13;;;2.68;93.01
77325;BME280;66387;53.440;10.390;2023-02-24T11:56:10;99281.50;;;2.75;92.36
77325;BME280;66387;53.440;10.390;2023-02-24T12:04:28;99253.31;;;2.70;92.76
77325;BME280;66387;53.440;10.390;2023-02-24T12:10:04;99252.44;;;2.79;93.38
77325;BME280;66387;53.440;10.390;2023-02-24T12:12:41;99248.19;;;2.78;93.26
77325;BME280;66387;53.440;10.390;2023-02-24T12:15:29;99240.50;;;2.78;92.68
77325;BME280;66387;53.440;10.390;2023-02-24T12:20:46;99231.97;;;2.70;92.97
77325;BME280;66387;53.440;10.390;2023-02-24T12:23:19;99223.41;;;2.80;93.00
77325;BME280;66387;53.440;10.390;2023-02-24T12:28:56;99206.28;;;2.89;92.68
77325;BME280;66387;53.440;10.390;2023-02-24T12:31:49;99204.56;;;2.90;92.65
77325;BME280;66387;53.440;10.390;2023-02-24T12:39:41;99196.00;;;2.94;93.49
77325;BME280;66387;53.440;10.390;2023-02-24T12:47:56;99170.34;;;3.00;92.60
77325;BME280;66387;53.440;10.390;2023-02-24T12:50:36;99181.47;;;2.97;93.37
77325;BME280;66387;53.440;10.390;2023-02-24T12:58:18;99148.88;;;3.15;94.15
77325;BME280;66387;53.440;10.390;2023-02-24T13:06:14;99152.22;;;3.26;93.64
77325;BME280;66387;53.440;10.390;2023-02-24T13:11:40;99141.97;;;3.26;93.25
77325;BME280;66387;53.440;10.390;2023-02-24T13:14:24;99143.66;;;3.25;93.06
77325;BME280;66387;53.440;10.390;2023-02-24T13:19:36;99126.50;;;3.38;93.89
77325;BME280;66387;53.440;10.390;2023-02-24T13:24:38;99114.47;;;3.44;92.79
77325;BME280;66387;53.440;10.390;2023-02-24T13:27:25;99107.59;;;3.48;93.56
77325;BME280;66387;53.440;10.390;2023-02-24T13:29:59;99109.25;;;3.52;93.22
77325;BME280;66387;53.440;10.390;2023-02-24T13:32:32;99107.56;;;3.51;93.45
77325;BME280;66387;53.440;10.390;2023-02-24T13:35:02;99097.31;;;3.50;92.75
77325;BME280;66387;53.440;10.390;2023-02-24T13:37:36;99086.13;;;3.55;93.23
77325;BME280;66387;53.440;10.390;2023-02-24T13:43:03;99080.94;;;3.63;92.65
77325;BME280;66387;53.440;10.390;2023-02-24T13:45:36;99095.50;;;3.58;94.00
77325;BME280;66387;53.440;10.390;2023-02-24T13:48:16;99091.28;;;3.54;93.38
77325;BME280;66387;53.440;10.390;2023-02-24T13:51:16;99079.34;;;3.53;93.49
77325;BME280;66387;53.440;10.390;2023-02-24T13:56:48;99083.44;;;3.70;92.51
77325;BME280;66387;53.440;10.390;2023-02-24T13:59:52;99072.25;;;3.76;93.29
77325;BME280;66387;53.440;10.390;2023-02-24T14:02:26;99068.84;;;3.74;92.77
77325;BME280;66387;53.440;10.390;2023-02-24T14:04:56;99071.38;;;3.77;92.77
77325;BME280;66387;53.440;10.390;2023-02-24T14:07:32;99067.06;;;3.82;93.43
77325;BME280;66387;53.440;10.390;2023-02-24T14:10:02;99055.09;;;3.79;93.79
77325;BME280;66387;53.440;10.390;2023-02-24T14:12:31;99044.81;;;3.81;93.63
77325;BME280;66387;53.440;10.390;2023-02-24T14:14:58;99044.81;;;3.81;93.68
77325;BME280;66387;53.440;10.390;2023-02-24T14:17:32;99044.81;;;3.81;93.97
77325;BME280;66387;53.440;10.390;2023-02-24T14:20:13;99043.06;;;3.83;93.94
77325;BME280;66387;53.440;10.390;2023-02-24T14:22:53;99045.59;;;3.89;94.05
77325;BME280;66387;53.440;10.390;2023-02-24T14:25:20;99035.28;;;3.90;94.37
77325;BME280;66387;53.440;10.390;2023-02-24T14:27:48;99043.03;;;3.87;94.05
77325;BME280;66387;53.440;10.390;2023-02-24T14:30:34;99038.72;;;3.91;95.49
77325;BME280;66387;53.440;10.390;2023-02-24T14:33:01;99034.50;;;3.84;95.28
77325;BME280;66387;53.440;10.390;2023-02-24T14:35:41;99036.09;;;3.95;95.47
77325;BME280;66387;53.440;10.390;2023-02-24T14:40:53;99031.63;;;4.10;94.97
77325;BME280;66387;53.440;10.390;2023-02-24T14:43:18;99023.84;;;4.17;95.09
77325;BME280;66387;53.440;10.390;2023-02-24T14:45:49;99018.66;;;4.22;94.92
77325;BME280;66387;53.440;10.390;2023-02-24T14:48:22;99015.94;;;4.32;94.29
77325;BME280;66387;53.440;10.390;2023-02-24T14:50:48;99017.56;;;4.38;95.00
77325;BME280;66387;53.440;10.390;2023-02-24T14:53:17;99014.19;;;4.34;95.01
77325;BME280;66387;53.440;10.390;2023-02-24T14:55:47;99010.69;;;4.38;95.35